createdAt,value
2023-03-27T00:00:26.079Z,9.418324
2023-03-27T00:01:26.089Z,9.418283
2023-03-27T00:02:26.146Z,9.418314
2023-03-27T00:03:26.143Z,9.418358
2023-03-27T00:04:26.046Z,9.418303
2023-03-27T00:05:26.041Z,9.418291
2023-03-27T00:06:26.046Z,9.418232
2023-03-27T00:07:26.025Z,9.418210
2023-03-27T00:08:26.021Z,9.418134
2023-03-27T00:09:28.446Z,9.418271
2023-03-27T00:10:25.999Z,9.418218
2023-03-27T00:11:25.994Z,9.418262
2023-03-27T00:12:26.000Z,9.418260
2023-03-27T00:13:25.994Z,9.418265
2023-03-27T00:14:26.001Z,9.418266
2023-03-27T00:15:25.970Z,9.418288
2023-03-27T00:16:25.963Z,9.418294
2023-03-27T00:17:25.961Z,9.418315
2023-03-27T00:18:25.971Z,9.418256
2023-03-27T00:19:25.957Z,9.418272
2023-03-27T00:20:25.939Z,9.418329
2023-03-27T00:21:25.992Z,9.418280
2023-03-27T00:22:25.937Z,9.418285
2023-03-27T00:23:25.925Z,9.418322
2023-03-27T00:24:25.914Z,9.418290
2023-03-27T00:25:25.915Z,9.418255
2023-03-27T00:26:25.913Z,9.418204
2023-03-27T00:27:25.908Z,9.418207
2023-03-27T00:28:25.887Z,9.418193
2023-03-27T00:29:25.911Z,9.418269
2023-03-27T00:30:25.882Z,9.418278
2023-03-27T00:31:25.893Z,9.418275
2023-03-27T00:32:25.894Z,9.418310
2023-03-27T00:33:25.856Z,9.418320
2023-03-27T00:34:25.865Z,9.418401
2023-03-27T00:35:25.890Z,9.418379
2023-03-27T00:36:25.836Z,9.418356
2023-03-27T00:37:25.826Z,9.418348
2023-03-27T00:38:25.834Z,9.418353
2023-03-27T00:39:25.833Z,9.418256
2023-03-27T00:40:25.811Z,9.418305
2023-03-27T00:41:25.840Z,9.418323
2023-03-27T00:42:25.810Z,9.418364
2023-03-27T00:43:25.788Z,9.418192
2023-03-27T00:44:25.805Z,9.418163
2023-03-27T00:45:25.790Z,9.418057
2023-03-27T00:46:25.825Z,9.418215
2023-03-27T00:47:25.780Z,9.418200
2023-03-27T00:48:25.756Z,9.418405
2023-03-27T00:49:25.757Z,9.418395
2023-03-27T00:50:25.757Z,9.418423
2023-03-27T00:51:25.736Z,9.418425
2023-03-27T00:52:25.729Z,9.418379
2023-03-27T00:53:25.754Z,9.418317
2023-03-27T00:54:25.728Z,9.418240
2023-03-27T00:55:25.719Z,9.418224
2023-03-27T00:56:25.693Z,9.418292
2023-03-27T00:57:25.705Z,9.418256
2023-03-27T00:58:25.691Z,9.418322
2023-03-27T00:59:25.685Z,9.418336
2023-03-27T01:00:25.701Z,9.418232
2023-03-27T01:01:25.728Z,9.418368
2023-03-27T01:02:25.745Z,9.418504
2023-03-27T01:03:25.718Z,9.418524
2023-03-27T01:04:25.657Z,9.418398
2023-03-27T01:05:25.673Z,9.418282
2023-03-27T01:06:25.642Z,9.418113
2023-03-27T01:07:25.636Z,9.418164
2023-03-27T01:08:25.627Z,9.418131
2023-03-27T01:09:25.609Z,9.418138
2023-03-27T01:10:25.630Z,9.418231
2023-03-27T01:11:25.605Z,9.418325
2023-03-27T01:12:25.613Z,9.418411
2023-03-27T01:13:25.587Z,9.418489
2023-03-27T01:14:25.581Z,9.418193
2023-03-27T01:15:25.576Z,9.418229
2023-03-27T01:16:25.595Z,9.418091
2023-03-27T01:17:25.621Z,9.418205
2023-03-27T01:18:25.564Z,9.418271
2023-03-27T01:19:25.549Z,9.418103
2023-03-27T01:20:25.545Z,9.418153
2023-03-27T01:21:25.577Z,9.418178
2023-03-27T01:22:25.545Z,9.418220
2023-03-27T01:23:58.935Z,9.418216
2023-03-27T01:24:26.516Z,9.418317
2023-03-27T01:25:25.508Z,9.418262
2023-03-27T01:26:36.132Z,9.418213
2023-03-27T01:27:26.507Z,9.418235
2023-03-27T01:28:25.501Z,9.418244
2023-03-27T01:29:25.480Z,9.418215
2023-03-27T01:30:25.482Z,9.418166
2023-03-27T01:31:25.566Z,9.418399
2023-03-27T01:32:25.489Z,9.418297
2023-03-27T01:33:25.460Z,9.418297
2023-03-27T01:34:25.451Z,9.418344
2023-03-27T01:35:25.512Z,9.418370
2023-03-27T01:36:25.453Z,9.418141
2023-03-27T01:37:25.451Z,9.418140
2023-03-27T01:38:25.434Z,9.418213
2023-03-27T01:39:25.413Z,9.418247
2023-03-27T01:40:25.419Z,9.418297
2023-03-27T01:41:25.403Z,9.418372
2023-03-27T01:42:25.415Z,9.418406
2023-03-27T01:43:25.394Z,9.418349
2023-03-27T01:44:25.384Z,9.418440
2023-03-27T01:45:26.389Z,9.418230
2023-03-27T01:46:25.432Z,9.418695
2023-03-27T01:47:25.374Z,9.418539
2023-03-27T01:48:25.367Z,9.418397
2023-03-27T01:49:25.354Z,9.418350
2023-03-27T01:50:25.366Z,9.418487
2023-03-27T01:51:25.341Z,9.418407
2023-03-27T01:52:25.337Z,9.418429
2023-03-27T01:53:25.342Z,9.418326
2023-03-27T01:54:25.322Z,9.418278
2023-03-27T01:55:25.349Z,9.418294
2023-03-27T01:56:25.309Z,9.418285
2023-03-27T01:57:25.299Z,9.418402
2023-03-27T01:58:25.301Z,9.418098
2023-03-27T01:59:25.290Z,9.418478
2023-03-27T02:00:25.447Z,9.418358
2023-03-27T02:01:25.380Z,9.418343
2023-03-27T02:02:25.268Z,9.418415
2023-03-27T02:03:25.265Z,9.418406
2023-03-27T02:04:25.266Z,9.418377
2023-03-27T02:05:25.242Z,9.418344
2023-03-27T02:06:25.271Z,9.418375
2023-03-27T02:07:25.240Z,9.418386
2023-03-27T02:08:25.235Z,9.418334
2023-03-27T02:09:25.209Z,9.418300
2023-03-27T02:10:26.218Z,9.418255
2023-03-27T02:11:25.464Z,9.418134
2023-03-27T02:12:25.221Z,9.418306
2023-03-27T02:13:25.197Z,9.418281
2023-03-27T02:14:25.191Z,9.418281
2023-03-27T02:15:25.612Z,9.418379
2023-03-27T02:16:25.243Z,9.418415
2023-03-27T02:17:25.209Z,9.418369
2023-03-27T02:18:25.173Z,9.418306
2023-03-27T02:19:25.162Z,9.418310
2023-03-27T02:20:25.155Z,9.418333
2023-03-27T02:21:25.173Z,9.418356
2023-03-27T02:22:38.162Z,9.418406
2023-03-27T02:23:26.140Z,9.418314
2023-03-27T02:24:25.131Z,9.418311
2023-03-27T02:25:25.132Z,9.418327
2023-03-27T02:26:25.119Z,9.418385
2023-03-27T02:27:25.150Z,9.418391
2023-03-27T02:28:25.118Z,9.418345
2023-03-27T02:29:25.100Z,9.418328
2023-03-27T02:30:25.091Z,9.418264
2023-03-27T02:31:33.604Z,9.418270
2023-03-27T02:32:26.121Z,9.418271
2023-03-27T02:34:25.061Z,9.418355
2023-03-27T02:35:25.073Z,9.418272
2023-03-27T02:36:25.055Z,9.418263
2023-03-27T02:37:25.046Z,9.418155
2023-03-27T02:38:26.070Z,9.418223
2023-03-27T02:39:25.030Z,9.418193
2023-03-27T02:40:25.020Z,9.418264
2023-03-27T02:41:25.025Z,9.418258
2023-03-27T02:42:25.011Z,9.418174
2023-03-27T02:43:25.007Z,9.418246
2023-03-27T02:44:24.996Z,9.418285
2023-03-27T02:45:25.029Z,9.418260
2023-03-27T02:46:25.066Z,9.418227
2023-03-27T02:47:25.026Z,9.418269
2023-03-27T02:48:24.998Z,9.418241
2023-03-27T02:49:24.961Z,9.418252
2023-03-27T02:50:24.960Z,9.418267
2023-03-27T02:51:24.979Z,9.418310
2023-03-27T02:52:24.958Z,9.418211
2023-03-27T02:53:24.941Z,9.418228
2023-03-27T02:54:24.922Z,9.418293
2023-03-27T02:55:25.923Z,9.418324
2023-03-27T02:56:24.954Z,9.418402
2023-03-27T02:57:25.344Z,9.418305
2023-03-27T02:58:25.911Z,9.418337
2023-03-27T02:59:24.891Z,9.418199
2023-03-27T03:00:24.901Z,9.418237
2023-03-27T03:01:24.919Z,9.418301
2023-03-27T03:02:24.986Z,9.418285
2023-03-27T03:03:24.904Z,9.418283
2023-03-27T03:04:24.870Z,9.418304
2023-03-27T03:05:24.858Z,9.418315
2023-03-27T03:06:24.860Z,9.418262
2023-03-27T03:07:24.868Z,9.418263
2023-03-27T03:08:24.861Z,9.418327
2023-03-27T03:09:24.845Z,9.418384
2023-03-27T03:10:24.967Z,9.418188
2023-03-27T03:11:24.827Z,9.418208
2023-03-27T03:12:24.824Z,9.418195
2023-03-27T03:13:24.799Z,9.418254
2023-03-27T03:14:24.832Z,9.418303
2023-03-27T03:15:24.839Z,9.418379
2023-03-27T03:16:24.830Z,9.418381
2023-03-27T03:17:24.819Z,9.418290
2023-03-27T03:18:25.804Z,9.418267
2023-03-27T03:19:24.816Z,9.418372
2023-03-27T03:20:24.771Z,9.418309
2023-03-27T03:21:24.764Z,9.418285
2023-03-27T03:22:24.750Z,9.418289
2023-03-27T03:23:24.758Z,9.418197
2023-03-27T03:24:24.724Z,9.418268
2023-03-27T03:25:24.723Z,9.418358
2023-03-27T03:26:24.714Z,9.418346
2023-03-27T03:27:24.715Z,9.418361
2023-03-27T03:28:24.734Z,9.418311
2023-03-27T03:29:24.710Z,9.418310
2023-03-27T03:30:24.717Z,9.418245
2023-03-27T03:31:24.738Z,9.418281
2023-03-27T03:32:24.709Z,9.418263
2023-03-27T03:33:24.690Z,9.418387
2023-03-27T03:34:24.673Z,9.418343
2023-03-27T03:35:24.740Z,9.418286
2023-03-27T03:36:24.662Z,9.418341
2023-03-27T03:37:24.649Z,9.418364
2023-03-27T03:38:24.637Z,9.418378
2023-03-27T03:39:24.625Z,9.418526
2023-03-27T03:40:24.636Z,9.418404
2023-03-27T03:41:24.651Z,9.418327
2023-03-27T03:42:24.610Z,9.418282
2023-03-27T03:43:24.622Z,9.418351
2023-03-27T03:44:24.605Z,9.418462
2023-03-27T03:45:24.617Z,9.418570
2023-03-27T03:46:24.627Z,9.418309
2023-03-27T03:47:24.621Z,9.418279
2023-03-27T03:48:24.586Z,9.418269
2023-03-27T03:49:24.569Z,9.418228
2023-03-27T03:50:24.606Z,9.418218
2023-03-27T03:51:24.572Z,9.418115
2023-03-27T03:52:24.562Z,9.418316
2023-03-27T03:53:24.549Z,9.418308
2023-03-27T03:54:24.543Z,9.418296
2023-03-27T03:55:24.536Z,9.418322
2023-03-27T03:56:24.549Z,9.418279
2023-03-27T03:57:24.518Z,9.418154
2023-03-27T03:58:34.676Z,9.418247
2023-03-27T03:59:25.509Z,9.418202
2023-03-27T04:00:24.505Z,9.418257
2023-03-27T04:01:24.512Z,9.418242
2023-03-27T04:02:24.537Z,9.418159
2023-03-27T04:03:24.587Z,9.418284
2023-03-27T04:04:24.471Z,9.418181
2023-03-27T04:05:24.462Z,9.418137
2023-03-27T04:06:24.469Z,9.418172
2023-03-27T04:07:24.463Z,9.418160
2023-03-27T04:08:24.479Z,9.418202
2023-03-27T04:09:24.436Z,9.418143
2023-03-27T04:10:24.434Z,9.418158
2023-03-27T04:11:25.432Z,9.418138
2023-03-27T04:12:24.449Z,9.418206
2023-03-27T04:13:24.411Z,9.418180
2023-03-27T04:14:24.427Z,9.418117
2023-03-27T04:15:24.410Z,9.418135
2023-03-27T04:16:24.453Z,9.418199
2023-03-27T04:17:24.469Z,9.418215
2023-03-27T04:18:24.508Z,9.418268
2023-03-27T04:19:24.826Z,9.418208
2023-03-27T04:20:24.388Z,9.418172
2023-03-27T04:21:24.355Z,9.418243
2023-03-27T04:22:24.355Z,9.418290
2023-03-27T04:23:24.355Z,9.418171
2023-03-27T04:24:24.338Z,9.418125
2023-03-27T04:25:24.456Z,9.418056
2023-03-27T04:26:24.355Z,9.418251
2023-03-27T04:27:24.316Z,9.418324
2023-03-27T04:28:24.319Z,9.418246
2023-03-27T04:29:24.308Z,9.418326
2023-03-27T04:30:24.337Z,9.418232
2023-03-27T04:31:24.335Z,9.418221
2023-03-27T04:32:24.378Z,9.418276
2023-03-27T04:33:24.283Z,9.418280
2023-03-27T04:34:24.281Z,9.418176
2023-03-27T04:35:24.294Z,9.418270
2023-03-27T04:36:24.298Z,9.418189
2023-03-27T04:37:24.338Z,9.418038
2023-03-27T04:38:24.260Z,9.418145
2023-03-27T04:39:24.254Z,9.418189
2023-03-27T04:40:25.251Z,9.418301
2023-03-27T04:41:24.275Z,9.418290
2023-03-27T04:42:24.235Z,9.418254
2023-03-27T04:43:24.222Z,9.418375
2023-03-27T04:44:24.220Z,9.418310
2023-03-27T04:45:24.229Z,9.418217
2023-03-27T04:46:24.292Z,9.418209
2023-03-27T04:47:24.252Z,9.418166
2023-03-27T04:48:24.199Z,9.417973
2023-03-27T04:49:24.190Z,9.418285
2023-03-27T04:50:24.184Z,9.418240
2023-03-27T04:51:24.230Z,9.418100
2023-03-27T04:52:24.174Z,9.418098
2023-03-27T04:53:24.175Z,9.418023
2023-03-27T04:54:24.166Z,9.418185
2023-03-27T04:55:24.193Z,9.418243
2023-03-27T04:56:24.148Z,9.418401
2023-03-27T04:57:24.156Z,9.418358
2023-03-27T04:58:24.135Z,9.418397
2023-03-27T04:59:24.128Z,9.418503
2023-03-27T05:00:24.124Z,9.418489
2023-03-27T05:01:24.134Z,9.418533
2023-03-27T05:02:24.156Z,9.418393
2023-03-27T05:03:24.214Z,9.418466
2023-03-27T05:04:24.096Z,9.418488
2023-03-27T05:05:24.094Z,9.418482
2023-03-27T05:06:24.078Z,9.418306
2023-03-27T05:07:24.084Z,9.418159
2023-03-27T05:08:24.083Z,9.418188
2023-03-27T05:09:24.071Z,9.418254
2023-03-27T05:10:24.053Z,9.418175
2023-03-27T05:11:24.048Z,9.418079
2023-03-27T05:12:24.062Z,9.418077
2023-03-27T05:13:24.028Z,9.418029
2023-03-27T05:14:24.030Z,9.417927
2023-03-27T05:15:24.023Z,9.417819
2023-03-27T05:16:24.056Z,9.417663
2023-03-27T05:17:24.083Z,9.417502
2023-03-27T05:18:24.000Z,9.417389
2023-03-27T05:19:25.531Z,9.417327
2023-03-27T05:20:23.992Z,9.416929
2023-03-27T05:21:23.977Z,9.417119
2023-03-27T05:22:24.230Z,9.417212
2023-03-27T05:23:24.238Z,9.417265
2023-03-27T05:24:23.968Z,9.417356
2023-03-27T05:25:23.962Z,9.417058
2023-03-27T05:26:23.961Z,9.417540
2023-03-27T05:27:23.949Z,9.417554
2023-03-27T05:28:23.943Z,9.417343
2023-03-27T05:29:24.017Z,9.417340
2023-03-27T05:30:23.966Z,9.417386
2023-03-27T05:31:23.981Z,9.417389
2023-03-27T05:32:23.956Z,9.417461
2023-03-27T05:33:23.895Z,9.417889
2023-03-27T05:34:23.955Z,9.417889
2023-03-27T05:35:24.029Z,9.417862
2023-03-27T05:36:23.877Z,9.417846
2023-03-27T05:37:24.939Z,9.417834
2023-03-27T05:38:23.869Z,9.418276
2023-03-27T05:39:24.115Z,9.418479
2023-03-27T05:40:23.859Z,9.418578
2023-03-27T05:41:23.852Z,9.418529
2023-03-27T05:42:23.849Z,9.418532
2023-03-27T05:43:23.850Z,9.418368
2023-03-27T05:44:23.822Z,9.418276
2023-03-27T05:45:23.857Z,9.418325
2023-03-27T05:46:23.876Z,9.418342
2023-03-27T05:47:23.862Z,9.418584
2023-03-27T05:48:23.816Z,9.418606
2023-03-27T05:49:23.805Z,9.418275
2023-03-27T05:50:23.789Z,9.418267
2023-03-27T05:51:23.787Z,9.418255
2023-03-27T05:52:28.287Z,9.418276
2023-03-27T05:53:27.968Z,9.418248
2023-03-27T05:54:23.798Z,9.418307
2023-03-27T05:55:24.591Z,9.418417
2023-03-27T05:56:23.759Z,9.418283
2023-03-27T05:57:23.739Z,9.418327
2023-03-27T05:58:23.743Z,9.418340
2023-03-27T05:59:23.790Z,9.418758
2023-03-27T06:00:23.723Z,9.419184
2023-03-27T06:01:23.718Z,9.419234
2023-03-27T06:02:23.810Z,9.418675
2023-03-27T06:03:23.896Z,9.418546
2023-03-27T06:04:23.739Z,9.418391
2023-03-27T06:05:23.696Z,9.418320
2023-03-27T06:06:23.695Z,9.418331
2023-03-27T06:07:23.694Z,9.418336
2023-03-27T06:08:23.676Z,9.418258
2023-03-27T06:09:23.680Z,9.418297
2023-03-27T06:10:23.667Z,9.418244
2023-03-27T06:11:23.659Z,9.418285
2023-03-27T06:12:23.660Z,9.418277
2023-03-27T06:13:23.668Z,9.418258
2023-03-27T06:14:23.643Z,9.418224
2023-03-27T06:15:23.631Z,9.418319
2023-03-27T06:16:23.682Z,9.418351
2023-03-27T06:17:23.735Z,9.418293
2023-03-27T06:18:23.644Z,9.418332
2023-03-27T06:19:23.996Z,9.418324
2023-03-27T06:20:23.607Z,9.418273
2023-03-27T06:21:24.496Z,9.418306
2023-03-27T06:22:23.593Z,9.418278
2023-03-27T06:23:23.581Z,9.418283
2023-03-27T06:24:23.587Z,9.418295
2023-03-27T06:25:23.578Z,9.418308
2023-03-27T06:26:23.574Z,9.418323
2023-03-27T06:27:23.565Z,9.418344
2023-03-27T06:28:23.542Z,9.418332
2023-03-27T06:29:23.553Z,9.418372
2023-03-27T06:30:23.552Z,9.418333
2023-03-27T06:31:23.603Z,9.418326
2023-03-27T06:32:24.128Z,9.418280
2023-03-27T06:33:23.512Z,9.418225
2023-03-27T06:34:23.507Z,9.418276
2023-03-27T06:35:24.501Z,9.418228
2023-03-27T06:36:23.531Z,9.418204
2023-03-27T06:37:23.495Z,9.418232
2023-03-27T06:38:23.482Z,9.418226
2023-03-27T06:39:23.478Z,9.418246
2023-03-27T06:40:23.479Z,9.418211
2023-03-27T06:41:23.461Z,9.418262
2023-03-27T06:42:23.489Z,9.418247
2023-03-27T06:43:23.458Z,9.418224
2023-03-27T06:44:23.443Z,9.418222
2023-03-27T06:45:23.446Z,9.418245
2023-03-27T06:46:27.563Z,9.418210
2023-03-27T06:47:25.466Z,9.418240
2023-03-27T06:48:23.479Z,9.418305
2023-03-27T06:49:23.411Z,9.418318
2023-03-27T06:50:23.412Z,9.418251
2023-03-27T06:51:23.397Z,9.418352
2023-03-27T06:52:23.423Z,9.418274
2023-03-27T06:53:27.669Z,9.418315
2023-03-27T06:54:25.377Z,9.418300
2023-03-27T06:55:23.393Z,9.418305
2023-03-27T06:56:23.391Z,9.418295
2023-03-27T06:57:23.387Z,9.418278
2023-03-27T06:58:23.420Z,9.418284
2023-03-27T06:59:23.352Z,9.418307
2023-03-27T07:00:23.356Z,9.418297
2023-03-27T07:01:23.364Z,9.418305
2023-03-27T07:02:23.342Z,9.418247
2023-03-27T07:03:23.377Z,9.418327
2023-03-27T07:04:23.323Z,9.418234
2023-03-27T07:05:23.409Z,9.418283
2023-03-27T07:06:23.299Z,9.418249
2023-03-27T07:07:23.311Z,9.418209
2023-03-27T07:08:25.179Z,9.418217
2023-03-27T07:09:24.280Z,9.418361
2023-03-27T07:10:23.271Z,9.418304
2023-03-27T07:11:23.271Z,9.418399
2023-03-27T07:12:23.253Z,9.418292
2023-03-27T07:13:24.268Z,9.418285
2023-03-27T07:14:23.238Z,9.418241
2023-03-27T07:15:23.919Z,9.418193
2023-03-27T07:16:23.291Z,9.418205
2023-03-27T07:17:23.235Z,9.418241
2023-03-27T07:18:23.272Z,9.418286
2023-03-27T07:19:23.236Z,9.418325
2023-03-27T07:20:23.210Z,9.418253
2023-03-27T07:21:23.230Z,9.418166
2023-03-27T07:22:23.185Z,9.418233
2023-03-27T07:23:24.183Z,9.418287
2023-03-27T07:24:23.180Z,9.418419
2023-03-27T07:25:23.175Z,9.418109
2023-03-27T07:26:23.407Z,9.418313
2023-03-27T07:27:23.156Z,9.418283
2023-03-27T07:28:23.143Z,9.418229
2023-03-27T07:29:23.151Z,9.418119
2023-03-27T07:30:23.150Z,9.418339
2023-03-27T07:31:35.162Z,9.418266
2023-03-27T07:32:36.329Z,9.418204
2023-03-27T07:33:25.233Z,9.418291
2023-03-27T07:34:23.121Z,9.418178
2023-03-27T07:35:23.138Z,9.418179
2023-03-27T07:36:23.105Z,9.418187
2023-03-27T07:37:23.099Z,9.418172
2023-03-27T07:38:23.094Z,9.418165
2023-03-27T07:39:23.082Z,9.418221
2023-03-27T07:40:33.047Z,9.418164
2023-03-27T07:41:25.128Z,9.418212
2023-03-27T07:42:23.065Z,9.418159
2023-03-27T07:43:23.057Z,9.418202
2023-03-27T07:44:23.041Z,9.418122
2023-03-27T07:45:23.057Z,9.418112
2023-03-27T07:46:23.116Z,9.418005
2023-03-27T07:47:23.071Z,9.417992
2023-03-27T07:48:23.028Z,9.417998
2023-03-27T07:49:39.460Z,9.418033
2023-03-27T07:50:24.034Z,9.418076
2023-03-27T07:51:23.033Z,9.418131
2023-03-27T07:52:22.997Z,9.418180
2023-03-27T07:53:32.878Z,9.418146
2023-03-27T07:54:23.987Z,9.418094
2023-03-27T07:55:22.996Z,9.418126
2023-03-27T07:56:22.965Z,9.418207
2023-03-27T07:57:23.100Z,9.418271
2023-03-27T07:58:23.177Z,9.418349
2023-03-27T07:59:22.953Z,9.418293
2023-03-27T08:00:23.039Z,9.418122
2023-03-27T08:01:22.939Z,9.418103
2023-03-27T08:02:22.948Z,9.418147
2023-03-27T08:03:23.017Z,9.418183
2023-03-27T08:04:22.983Z,9.418262
2023-03-27T08:05:22.952Z,9.418244
2023-03-27T08:06:22.899Z,9.418335
2023-03-27T08:07:22.906Z,9.418372
2023-03-27T08:08:22.910Z,9.418488
2023-03-27T08:09:22.887Z,9.418532
2023-03-27T08:10:22.929Z,9.418521
2023-03-27T08:11:30.234Z,9.418447
2023-03-27T08:12:24.856Z,9.418451
2023-03-27T08:13:22.864Z,9.418377
2023-03-27T08:14:22.840Z,9.418386
2023-03-27T08:15:22.844Z,9.418391
2023-03-27T08:16:22.966Z,9.418410
2023-03-27T08:17:22.843Z,9.418378
2023-03-27T08:18:22.851Z,9.418463
2023-03-27T08:19:22.810Z,9.418489
2023-03-27T08:20:22.853Z,9.418448
2023-03-27T08:21:22.794Z,9.418436
2023-03-27T08:22:22.822Z,9.418343
2023-03-27T08:23:22.787Z,9.418344
2023-03-27T08:24:22.782Z,9.418384
2023-03-27T08:25:23.034Z,9.418397
2023-03-27T08:26:22.765Z,9.418378
2023-03-27T08:27:22.771Z,9.418323
2023-03-27T08:28:22.767Z,9.418420
2023-03-27T08:29:22.736Z,9.418416
2023-03-27T08:30:22.729Z,9.418418
2023-03-27T08:31:22.742Z,9.418444
2023-03-27T08:32:22.736Z,9.418405
2023-03-27T08:33:22.750Z,9.418424
2023-03-27T08:34:22.709Z,9.418520
2023-03-27T08:35:22.737Z,9.418581
2023-03-27T08:36:22.710Z,9.418556
2023-03-27T08:37:22.713Z,9.418520
2023-03-27T08:38:26.881Z,9.418456
2023-03-27T08:39:23.914Z,9.418432
2023-03-27T08:40:22.685Z,9.418435
2023-03-27T08:41:22.662Z,9.418410
2023-03-27T08:42:22.655Z,9.418459
2023-03-27T08:43:22.671Z,9.418437
2023-03-27T08:44:22.635Z,9.418146
2023-03-27T08:45:22.699Z,9.418284
2023-03-27T08:46:22.662Z,9.418525
2023-03-27T08:47:22.666Z,9.418586
2023-03-27T08:48:22.619Z,9.418569
2023-03-27T08:49:22.636Z,9.418468
2023-03-27T08:50:22.622Z,9.418468
2023-03-27T08:51:22.702Z,9.418363
2023-03-27T08:52:22.586Z,9.418342
2023-03-27T08:53:22.601Z,9.418287
2023-03-27T08:54:22.828Z,9.418291
2023-03-27T08:55:22.574Z,9.418354
2023-03-27T08:56:22.564Z,9.418304
2023-03-27T08:57:22.555Z,9.418300
2023-03-27T08:58:22.575Z,9.418281
2023-03-27T08:59:22.550Z,9.418245
2023-03-27T09:00:22.572Z,9.418232
2023-03-27T09:01:22.562Z,9.418276
2023-03-27T09:02:22.550Z,9.418287
2023-03-27T09:03:22.607Z,9.418307
2023-03-27T09:04:22.535Z,9.418356
2023-03-27T09:05:22.539Z,9.418361
2023-03-27T09:06:22.499Z,9.418318
2023-03-27T09:07:22.496Z,9.418354
2023-03-27T09:08:22.499Z,9.418254
2023-03-27T09:09:22.473Z,9.418280
2023-03-27T09:10:22.483Z,9.418295
2023-03-27T09:11:22.466Z,9.418299
2023-03-27T09:12:22.456Z,9.418273
2023-03-27T09:13:23.443Z,9.418266
2023-03-27T09:14:22.445Z,9.418227
2023-03-27T09:15:22.477Z,9.418297
2023-03-27T09:16:22.479Z,9.418312
2023-03-27T09:17:22.414Z,9.418250
2023-03-27T09:18:22.425Z,9.418181
2023-03-27T09:19:22.413Z,9.418158
2023-03-27T09:20:22.416Z,9.418360
2023-03-27T09:21:22.396Z,9.418328
2023-03-27T09:22:22.401Z,9.418335
2023-03-27T09:23:22.380Z,9.418335
2023-03-27T09:24:22.391Z,9.418302
2023-03-27T09:25:22.387Z,9.418376
2023-03-27T09:26:22.370Z,9.418349
2023-03-27T09:27:22.347Z,9.418318
2023-03-27T09:28:22.344Z,9.418447
2023-03-27T09:29:22.348Z,9.418464
2023-03-27T09:30:22.354Z,9.418380
2023-03-27T09:31:22.349Z,9.418326
2023-03-27T09:32:22.329Z,9.418267
2023-03-27T09:33:22.318Z,9.418284
2023-03-27T09:34:22.299Z,9.418225
2023-03-27T09:35:22.342Z,9.418305
2023-03-27T09:36:22.299Z,9.418270
2023-03-27T09:37:22.339Z,9.418317
2023-03-27T09:38:22.279Z,9.418293
2023-03-27T09:39:22.295Z,9.418357
2023-03-27T09:40:22.269Z,9.418365
2023-03-27T09:41:22.257Z,9.418297
2023-03-27T09:42:22.274Z,9.418253
2023-03-27T09:43:24.366Z,9.418261
2023-03-27T09:44:23.233Z,9.418305
2023-03-27T09:45:22.230Z,9.418319
2023-03-27T09:46:22.233Z,9.418410
2023-03-27T09:47:22.238Z,9.418388
2023-03-27T09:48:22.208Z,9.418507
2023-03-27T09:49:22.198Z,9.418337
2023-03-27T09:50:22.212Z,9.418333
2023-03-27T09:51:22.200Z,9.418475
2023-03-27T09:52:22.175Z,9.418325
2023-03-27T09:53:22.197Z,9.418344
2023-03-27T09:54:22.182Z,9.418379
2023-03-27T09:55:22.166Z,9.418429
2023-03-27T09:56:22.163Z,9.418450
2023-03-27T09:57:22.188Z,9.418334
2023-03-27T09:58:22.184Z,9.418081
2023-03-27T09:59:22.166Z,9.418246
2023-03-27T10:00:22.138Z,9.418314
2023-03-27T10:01:22.154Z,9.418352
2023-03-27T10:02:22.128Z,9.418500
2023-03-27T10:03:22.228Z,9.418435
2023-03-27T10:04:22.123Z,9.418489
2023-03-27T10:05:22.116Z,9.418436
2023-03-27T10:06:22.092Z,9.418306
2023-03-27T10:07:22.084Z,9.418256
2023-03-27T10:08:22.074Z,9.418428
2023-03-27T10:09:22.059Z,9.418068
2023-03-27T10:10:22.076Z,9.418277
2023-03-27T10:11:22.081Z,9.418214
2023-03-27T10:12:22.060Z,9.418121
2023-03-27T10:13:22.042Z,9.418204
2023-03-27T10:14:22.045Z,9.418315
2023-03-27T10:15:22.058Z,9.418354
2023-03-27T10:16:22.043Z,9.418283
2023-03-27T10:17:22.023Z,9.418344
2023-03-27T10:18:22.007Z,9.418328
2023-03-27T10:19:22.002Z,9.418364
2023-03-27T10:20:22.049Z,9.418227
2023-03-27T10:21:22.000Z,9.418290
2023-03-27T10:22:21.980Z,9.418293
2023-03-27T10:23:22.003Z,9.418329
2023-03-27T10:24:21.972Z,9.418341
2023-03-27T10:25:21.961Z,9.418326
2023-03-27T10:26:21.982Z,9.418220
2023-03-27T10:27:22.074Z,9.418172
2023-03-27T10:28:21.939Z,9.418146
2023-03-27T10:29:21.931Z,9.418060
2023-03-27T10:30:21.922Z,9.418306
2023-03-27T10:31:21.967Z,9.418180
2023-03-27T10:32:21.913Z,9.418196
2023-03-27T10:33:22.021Z,9.418237
2023-03-27T10:34:21.906Z,9.418475
2023-03-27T10:35:21.905Z,9.418404
2023-03-27T10:36:21.934Z,9.418467
2023-03-27T10:37:21.874Z,9.418223
2023-03-27T10:38:21.937Z,9.418267
2023-03-27T10:39:21.863Z,9.418307
2023-03-27T10:40:21.879Z,9.418188
2023-03-27T10:41:28.740Z,9.418290
2023-03-27T10:42:22.856Z,9.418337
2023-03-27T10:43:21.833Z,9.418440
2023-03-27T10:44:21.827Z,9.418255
2023-03-27T10:45:21.820Z,9.418294
2023-03-27T10:46:21.920Z,9.418231
2023-03-27T10:47:21.840Z,9.418299
2023-03-27T10:48:21.806Z,9.418596
2023-03-27T10:49:21.802Z,9.418542
2023-03-27T10:50:21.820Z,9.418275
2023-03-27T10:51:21.776Z,9.418203
2023-03-27T10:52:21.807Z,9.418282
2023-03-27T10:53:21.858Z,9.418134
2023-03-27T10:54:21.847Z,9.418168
2023-03-27T10:55:21.752Z,9.418004
2023-03-27T10:56:21.747Z,9.418024
2023-03-27T10:57:21.919Z,9.418131
2023-03-27T10:58:21.738Z,9.418273
2023-03-27T10:59:31.153Z,9.418244
2023-03-27T11:00:23.716Z,9.418373
2023-03-27T11:01:21.768Z,9.418362
2023-03-27T11:02:21.735Z,9.418423
2023-03-27T11:03:21.727Z,9.418373
2023-03-27T11:04:21.756Z,9.418419
2023-03-27T11:05:21.862Z,9.418164
2023-03-27T11:06:21.671Z,9.418442
2023-03-27T11:07:21.680Z,9.418477
2023-03-27T11:08:21.675Z,9.418696
2023-03-27T11:09:21.676Z,9.418509
2023-03-27T11:10:21.712Z,9.418443
2023-03-27T11:11:21.647Z,9.418403
2023-03-27T11:12:21.643Z,9.418304
2023-03-27T11:13:21.651Z,9.418082
2023-03-27T11:14:21.621Z,9.418175
2023-03-27T11:15:21.616Z,9.418005
2023-03-27T11:16:21.679Z,9.418519
2023-03-27T11:17:21.617Z,9.418512
2023-03-27T11:18:21.598Z,9.418470
2023-03-27T11:19:21.592Z,9.418399
2023-03-27T11:20:21.591Z,9.418300
2023-03-27T11:21:21.590Z,9.418254
2023-03-27T11:22:21.577Z,9.418284
2023-03-27T11:23:21.575Z,9.418289
2023-03-27T11:24:21.563Z,9.418322
2023-03-27T11:25:21.562Z,9.418283
2023-03-27T11:26:21.576Z,9.418396
2023-03-27T11:27:21.535Z,9.418435
2023-03-27T11:28:21.533Z,9.418393
2023-03-27T11:29:21.526Z,9.418377
2023-03-27T11:30:21.511Z,9.418356
2023-03-27T11:31:21.684Z,9.418459
2023-03-27T11:32:21.560Z,9.418359
2023-03-27T11:33:21.491Z,9.418459
2023-03-27T11:34:28.486Z,9.418445
2023-03-27T11:35:22.498Z,9.418416
2023-03-27T11:36:21.474Z,9.418328
2023-03-27T11:37:21.482Z,9.418288
2023-03-27T11:38:21.467Z,9.418318
2023-03-27T11:39:21.464Z,9.418363
2023-03-27T11:40:21.468Z,9.418442
2023-03-27T11:41:21.462Z,9.418527
2023-03-27T11:42:21.448Z,9.418571
2023-03-27T11:43:21.429Z,9.418454
2023-03-27T11:44:21.434Z,9.418394
2023-03-27T11:45:21.449Z,9.418389